Aérodrome :
LOGIN :

S'inscrire | Disclaimer

   EN    FR    IT 

 










Légende :    VFR   VFR Marginal   IFR   IFR Intensif   IFR Très Intensif
Visi : 
Plafond : 
>= 8 km
>= 3000ft
5 à 8 km
1000 à 3000 ft
1500m à 5 km
500 à 1000 ft
800 à 1500m
200 à 500 ft
< 800m
< 200 ft
Symboles :   Orages  Brouillard  Fortes neiges  Fortes précipitations  Vent > 20 kt
SIGMETs :   Divers  Orages  Givrage  Turbulence  Onde Orograph.  Cendres Volcan.






- Altitude de l'aérodrome : 247 ft
- Code IATA : BLL


EKBI - Billund

DERNIER METAR :
  • 270450Z AUTO 17009KT 140V200 3900 -SHRA BR OVC006/// 05/04 Q1004

METARs EXPIRÉS :
  • 270420Z AUTO 16009KT 3500 BR OVC006/// 05/04 Q1004
  • 270350Z AUTO 16009KT 130V190 3400 BR OVC005/// 05/04 Q1005
  • 270320Z AUTO 16008KT 3300 BR OVC005/// 05/04 Q1005
  • 270250Z AUTO 15009KT 120V180 3200 BR OVC005/// 05/04 Q1006
  • 270220Z AUTO 15009KT 3300 BR OVC006/// 05/04 Q1006

TAF AMD TAF EKBI
Valide du 27 à 02h jusqu'au 28 à 00h UTC


270224Z 2702/2724 15010KT 3000 BR BKN005
TEMPO 2704/2711 6000 RADZ BKN003
BECMG 2711/2713 22012KT 9999 NSW BKN015
TEMPO 2713/2718 BKN012
TEMPO 2718/2724 4000 -SHRA BR BKN004 SCT020TCU



MET'MAP, la Météo Aéronautique d'un coup d'oeil ! - Copyright ORBIFLY Décembre 2007 - Disclaimer

ORBIFLY MET'MAP TEAM :

Programmation & Développement : Alexandra Zaïnal
Sur une idée originale de : Baudouin d'Aumeries
Assistance à la programmation : Marc-Olivier Méhu
Soutien technique & logistique : Manuel Goepfert

Contact : metmap@orbifly.com




SOURCES & CREDITS :

   NOAA